createdAt,value
2022-08-05T00:00:22.582Z,100508.69
2022-08-05T00:02:52.238Z,100512.28
2022-08-05T00:06:02.063Z,100519.34
2022-08-05T00:08:32.616Z,100539.03
2022-08-05T00:11:00.604Z,100551.19
2022-08-05T00:13:39.053Z,100562.50
2022-08-05T00:16:12.386Z,100569.72
2022-08-05T00:18:42.360Z,100580.78
2022-08-05T00:21:11.086Z,100598.00
2022-08-05T00:23:45.992Z,100615.25
2022-08-05T00:26:16.342Z,100609.78
2022-08-05T00:28:45.983Z,100610.03
2022-08-05T00:31:14.842Z,100614.06
2022-08-05T00:34:56.489Z,100612.97
2022-08-05T00:37:12.833Z,100614.59
2022-08-05T00:39:18.934Z,100635.63
2022-08-05T00:41:55.628Z,100623.19
2022-08-05T00:44:30.725Z,100620.44
2022-08-05T00:47:03.740Z,100609.63
2022-08-05T00:49:32.954Z,100625.84
2022-08-05T00:52:12.762Z,100622.88
2022-08-05T00:54:41.201Z,100626.38
2022-08-05T00:57:11.218Z,100618.25
2022-08-05T00:59:44.594Z,100579.63
2022-08-05T01:02:13.305Z,100546.16
2022-08-05T01:04:44.640Z,100528.69
2022-08-05T01:07:18.202Z,100506.50
2022-08-05T01:09:46.474Z,100447.38
2022-08-05T01:12:29.722Z,100368.31
2022-08-05T01:15:05.201Z,100402.09
2022-08-05T01:17:39.988Z,100466.19
2022-08-05T01:20:30.183Z,100533.53
2022-08-05T01:23:15.027Z,100560.88
2022-08-05T01:26:04.783Z,100566.84
2022-08-05T01:28:39.520Z,100574.44
2022-08-05T01:31:12.488Z,100562.59
2022-08-05T01:33:49.226Z,100588.28
2022-08-05T01:36:28.182Z,100580.19
2022-08-05T01:39:00.269Z,100562.91
2022-08-05T01:41:36.236Z,100545.59
2022-08-05T01:44:11.235Z,100542.03
2022-08-05T01:46:46.394Z,100532.84
2022-08-05T01:49:23.789Z,100527.38
2022-08-05T01:51:58.268Z,100546.22
2022-08-05T01:54:32.576Z,100549.22
2022-08-05T01:58:10.381Z,100559.28
2022-08-05T01:59:53.696Z,100559.28
2022-08-05T02:02:26.236Z,100564.00
2022-08-05T02:04:59.393Z,100573.66
2022-08-05T02:07:30.421Z,100581.78
2022-08-05T02:09:58.842Z,100593.16
2022-08-05T02:12:35.506Z,100593.16
2022-08-05T02:15:08.036Z,100577.19
2022-08-05T02:18:28.045Z,100594.75
2022-08-05T02:20:39.530Z,100601.50
2022-08-05T02:23:12.125Z,100598.78
2022-08-05T02:25:49.464Z,100600.16
2022-08-05T02:28:28.261Z,100607.19
2022-08-05T02:31:01.828Z,100603.94
2022-08-05T02:33:36.060Z,100596.16
2022-08-05T02:36:09.862Z,100594.25
2022-08-05T02:38:44.935Z,100588.56
2022-08-05T02:41:23.191Z,100583.97
2022-08-05T02:44:02.276Z,100585.34
2022-08-05T02:46:43.974Z,100578.09
2022-08-05T02:49:26.862Z,100583.81
2022-08-05T02:52:03.424Z,100576.56
2022-08-05T02:54:35.769Z,100574.41
2022-08-05T02:57:10.193Z,100575.53
2022-08-05T02:59:56.436Z,100572.81
2022-08-05T03:02:30.604Z,100583.31
2022-08-05T03:05:01.067Z,100581.47
2022-08-05T03:08:00.647Z,100568.03
2022-08-05T03:10:24.363Z,100559.19
2022-08-05T03:12:53.066Z,100549.22
2022-08-05T03:15:23.604Z,100550.41
2022-08-05T03:17:55.982Z,100553.16
2022-08-05T03:20:26.466Z,100541.19
2022-08-05T03:22:57.667Z,100540.13
2022-08-05T03:25:33.241Z,100546.88
2022-08-05T03:28:18.864Z,100537.97
2022-08-05T03:30:49.668Z,100525.91
2022-08-05T03:33:20.425Z,100529.22
2022-08-05T03:35:50.639Z,100531.97
2022-08-05T03:38:32.943Z,100543.03
2022-08-05T03:41:08.543Z,100553.53
2022-08-05T03:44:08.499Z,100550.84
2022-08-05T03:46:29.648Z,100555.16
2022-08-05T03:48:59.697Z,100558.13
2022-08-05T03:52:39.253Z,100567.03
2022-08-05T03:55:54.208Z,100557.59
2022-08-05T03:57:18.360Z,100555.16
2022-08-05T03:59:54.677Z,100558.94
2022-08-05T04:02:38.271Z,100570.25
2022-08-05T04:05:10.351Z,100572.69
2022-08-05T04:07:53.525Z,100570.25
2022-08-05T04:10:27.724Z,100570.81
2022-08-05T04:12:58.944Z,100567.56
2022-08-05T04:15:27.889Z,100575.91
2022-08-05T04:18:03.356Z,100565.44
2022-08-05T04:20:32.475Z,100564.31
2022-08-05T04:23:01.359Z,100571.06
2022-08-05T04:25:57.058Z,100571.91
2022-08-05T04:28:17.392Z,100567.03
2022-08-05T04:30:46.078Z,100573.53
2022-08-05T04:33:17.116Z,100573.78
2022-08-05T04:36:11.094Z,100579.16
2022-08-05T04:38:55.722Z,100567.06
2022-08-05T04:41:36.586Z,100568.69
2022-08-05T04:44:08.855Z,100563.84
2022-08-05T04:46:38.233Z,100569.00
2022-08-05T04:49:12.444Z,100567.13
2022-08-05T04:51:44.877Z,100566.56
2022-08-05T04:54:14.602Z,100566.03
2022-08-05T04:56:42.575Z,100569.81
2022-08-05T04:59:21.839Z,100577.91
2022-08-05T05:02:35.306Z,100585.97
2022-08-05T05:04:44.076Z,100582.72
2022-08-05T05:07:17.840Z,100580.31
2022-08-05T05:09:45.917Z,100577.59
2022-08-05T05:12:13.915Z,100576.81
2022-08-05T05:14:50.730Z,100577.63
2022-08-05T05:19:56.432Z,100583.03
2022-08-05T05:22:31.769Z,100587.38
2022-08-05T05:25:16.146Z,100588.19
2022-08-05T08:03:13.847Z,100777.69
2022-08-05T08:05:49.816Z,100782.00
2022-08-05T08:08:22.526Z,100776.56
2022-08-05T08:10:55.606Z,100777.66
2022-08-05T08:13:29.048Z,100784.66
2022-08-05T08:16:50.851Z,100787.84
2022-08-05T08:18:50.204Z,100785.63
2022-08-05T08:21:18.754Z,100786.38
2022-08-05T08:24:03.101Z,100784.72
2022-08-05T08:26:32.198Z,100799.03
2022-08-05T08:29:09.698Z,100798.38
2022-08-05T08:31:48.673Z,100791.31
2022-08-05T08:34:18.731Z,100795.63
2022-08-05T08:36:54.671Z,100801.88
2022-08-05T08:39:24.921Z,100798.94
2022-08-05T08:41:59.813Z,100805.94
2022-08-05T08:45:23.520Z,100815.41
2022-08-05T08:48:05.618Z,100818.34
2022-08-05T08:50:33.002Z,100827.53
2022-08-05T08:53:07.903Z,100832.94
2022-08-05T08:56:02.882Z,100824.28
2022-08-05T08:58:37.198Z,100831.28
2022-08-05T09:01:16.286Z,100836.63
2022-08-05T09:03:47.558Z,100836.25
2022-08-05T09:06:21.223Z,100844.59
2022-08-05T09:08:56.343Z,100852.94
2022-08-05T09:11:53.759Z,100854.25
2022-08-05T09:14:56.937Z,100855.44
2022-08-05T09:17:01.607Z,100852.97
2022-08-05T09:19:36.562Z,100866.25
2022-08-05T09:22:28.796Z,100866.03
2022-08-05T09:25:00.480Z,100863.31
2022-08-05T09:28:04.067Z,100874.94
2022-08-05T09:30:23.222Z,100872.50
2022-08-05T09:32:52.966Z,100860.31
2022-08-05T09:35:27.098Z,100869.72
2022-08-05T09:38:16.199Z,100876.66
2022-08-05T09:40:52.205Z,100863.88
2022-08-05T09:43:41.139Z,100875.94
2022-08-05T09:46:28.068Z,100863.94
2022-08-05T09:49:07.199Z,100858.47
2022-08-05T09:51:49.677Z,100871.38
2022-08-05T09:54:32.150Z,100874.19
2022-08-05T09:57:01.464Z,100881.09
2022-08-05T09:59:35.126Z,100878.41
2022-08-05T10:02:05.562Z,100878.91
2022-08-05T10:04:41.289Z,100878.84
2022-08-05T10:07:19.984Z,100885.25
2022-08-05T10:10:14.872Z,100884.44
2022-08-05T10:12:49.841Z,100887.09
2022-08-05T10:15:26.340Z,100881.97
2022-08-05T10:18:16.579Z,100885.69
2022-08-05T10:20:47.712Z,100876.41
2022-08-05T10:23:34.104Z,100874.72
2022-08-05T10:26:13.806Z,100875.22
2022-08-05T10:28:44.912Z,100876.31
2022-08-05T10:32:47.964Z,100886.56
2022-08-05T10:34:12.736Z,100878.53
2022-08-05T10:36:43.580Z,100888.53
2022-08-05T10:39:24.353Z,100887.75
2022-08-05T10:42:14.892Z,100886.19
2022-08-05T10:44:48.378Z,100881.31
2022-08-05T10:47:26.585Z,100901.72
2022-08-05T10:50:33.097Z,100889.75
2022-08-05T10:53:01.677Z,100904.00
2022-08-05T10:56:03.498Z,100892.00
2022-08-05T10:58:23.126Z,100888.63
2022-08-05T11:01:09.381Z,100895.81
2022-08-05T11:04:00.985Z,100899.47
2022-08-05T11:06:30.739Z,100904.44
2022-08-05T11:09:32.500Z,100908.25
2022-08-05T11:12:50.379Z,100903.88
2022-08-05T11:16:00.192Z,100907.44
2022-08-05T11:18:30.246Z,100918.75
2022-08-05T11:21:40.911Z,100922.56
2022-08-05T11:24:30.581Z,100915.50
2022-08-05T11:27:51.090Z,100921.41
2022-08-05T11:30:20.125Z,100921.41
2022-08-05T11:32:50.161Z,100924.72
2022-08-05T11:36:08.042Z,100938.38
2022-08-05T11:38:54.962Z,100940.81
2022-08-05T11:41:57.867Z,100950.75
2022-08-05T11:44:40.201Z,100949.50
2022-08-05T11:47:11.044Z,100956.75
2022-08-05T11:49:43.236Z,100953.50
2022-08-05T11:52:29.345Z,100949.44
2022-08-05T11:55:07.611Z,100963.19
2022-08-05T11:58:10.895Z,100966.66
2022-08-05T12:00:29.060Z,100970.22
2022-08-05T12:02:59.513Z,100979.09
2022-08-05T12:05:32.210Z,100969.13
2022-08-05T12:08:11.240Z,100973.09
2022-08-05T12:10:45.490Z,100975.53
2022-08-05T12:13:17.265Z,100977.13
2022-08-05T12:15:56.372Z,100976.69
2022-08-05T12:18:33.188Z,100976.78
2022-08-05T12:21:13.518Z,100996.00
2022-08-05T12:23:54.433Z,100992.69
2022-08-05T12:26:23.961Z,101000.00
2022-08-05T12:28:52.561Z,101001.72
2022-08-05T12:31:23.759Z,100994.72
2022-08-05T12:34:04.291Z,100996.00
2022-08-05T12:36:34.553Z,101000.78
2022-08-05T12:39:06.846Z,100994.53
2022-08-05T12:41:43.820Z,101001.16
2022-08-05T12:44:28.689Z,101006.69
2022-08-05T12:47:04.431Z,101010.78
2022-08-05T12:50:04.340Z,100994.97
2022-08-05T12:52:39.348Z,101017.84
2022-08-05T12:55:23.608Z,101022.38
2022-08-05T12:58:48.951Z,101024.81
2022-08-05T13:02:00.419Z,101030.41
2022-08-05T13:03:42.329Z,101026.50
2022-08-05T13:06:17.838Z,101040.84
2022-08-05T13:08:52.227Z,101031.94
2022-08-05T13:12:01.696Z,101036.81
2022-08-05T13:14:20.107Z,101037.97
2022-08-05T13:16:56.616Z,101034.19
2022-08-05T13:19:27.636Z,101041.56
2022-08-05T13:22:28.185Z,101047.50
2022-08-05T13:25:05.809Z,101037.78
2022-08-05T13:27:39.291Z,101047.72
2022-08-05T13:30:33.584Z,101052.22
2022-08-05T13:33:01.310Z,101048.88
2022-08-05T13:35:47.555Z,101046.72
2022-08-05T13:38:30.312Z,101058.19
2022-08-05T13:41:06.769Z,101064.41
2022-08-05T13:43:44.219Z,101063.28
2022-08-05T13:46:15.409Z,101059.56
2022-08-05T13:48:58.155Z,101064.66
2022-08-05T13:51:40.439Z,101072.56
2022-08-05T13:54:13.097Z,101059.69
2022-08-05T13:56:50.996Z,101065.31
2022-08-05T13:59:24.245Z,101073.97
2022-08-05T14:01:57.673Z,101080.47
2022-08-05T14:04:49.555Z,101082.56
2022-08-05T14:07:25.578Z,101089.28
2022-08-05T14:10:13.134Z,101083.19
2022-08-05T14:12:48.674Z,101088.47
2022-08-05T14:16:07.404Z,101089.56
2022-08-05T14:18:15.151Z,101092.19
2022-08-05T14:20:48.457Z,101090.84
2022-08-05T14:23:23.410Z,101104.47
2022-08-05T14:25:54.536Z,101107.22
2022-08-05T14:28:28.914Z,101105.06
2022-08-05T14:30:57.745Z,101109.13
2022-08-05T14:33:26.131Z,101097.25
2022-08-05T14:35:55.073Z,101111.13
2022-08-05T14:38:33.152Z,101108.41
2022-08-05T14:41:07.653Z,101102.75
2022-08-05T14:43:51.819Z,101115.22
2022-08-05T14:46:30.722Z,101103.53
2022-08-05T14:49:06.656Z,101106.16
2022-08-05T14:51:37.697Z,101104.91
2022-08-05T14:54:28.021Z,101101.84
2022-08-05T14:56:56.349Z,101112.34
2022-08-05T14:59:29.504Z,101102.91
2022-08-05T15:02:15.182Z,101109.44
2022-08-05T15:04:53.155Z,101108.88
2022-08-05T15:08:06.315Z,101114.81
2022-08-05T15:10:11.842Z,101109.00
2022-08-05T15:12:59.867Z,101116.38
2022-08-05T15:15:54.323Z,101108.41
2022-08-05T15:18:20.735Z,101106.75
2022-08-05T15:20:50.925Z,101110.22
2022-08-05T15:23:20.120Z,101118.09
2022-08-05T15:25:53.454Z,101123.44
2022-08-05T15:28:27.117Z,101121.28
2022-08-05T15:30:58.549Z,101124.31
2022-08-05T15:34:04.705Z,101129.50
2022-08-05T15:36:24.410Z,101127.84
2022-08-05T15:41:00.151Z,101135.91
2022-08-05T15:41:55.555Z,101128.44
2022-08-05T15:44:27.594Z,101130.34
2022-08-05T15:46:58.082Z,101145.00
2022-08-05T15:49:55.173Z,101144.19
2022-08-05T15:52:16.797Z,101140.13
2022-08-05T15:54:58.320Z,101139.03
2022-08-05T15:57:33.055Z,101133.66
2022-08-05T16:00:03.866Z,101138.81
2022-08-05T16:02:34.961Z,101145.28
2022-08-05T16:05:03.665Z,101153.66
2022-08-05T16:07:33.969Z,101159.34
2022-08-05T16:10:02.850Z,101162.34
2022-08-05T16:12:32.002Z,101162.41
2022-08-05T16:15:01.264Z,101163.78
2022-08-05T16:17:30.628Z,101161.34
2022-08-05T16:20:05.105Z,101159.97
2022-08-05T16:22:41.397Z,101170.78
2022-08-05T16:25:11.466Z,101168.69
2022-08-05T16:28:00.196Z,101180.59
2022-08-05T16:30:31.083Z,101172.78
2022-08-05T16:33:00.932Z,101182.25
2022-08-05T16:35:33.517Z,101183.34
2022-08-05T16:38:23.897Z,101187.09
2022-08-05T16:40:59.572Z,101193.06
2022-08-05T16:43:32.591Z,101200.59
2022-08-05T16:46:04.942Z,101203.88
2022-08-05T16:48:39.212Z,101217.63
2022-08-05T16:51:10.936Z,101213.88
2022-08-05T16:54:05.178Z,101210.63
2022-08-05T16:56:31.024Z,101217.63
2022-08-05T16:59:00.774Z,101217.63
2022-08-05T17:01:52.541Z,101230.88
2022-08-05T17:04:18.943Z,101225.44
2022-08-05T17:06:53.273Z,101238.97
2022-08-05T17:09:23.186Z,101241.06
2022-08-05T17:11:56.081Z,101242.44
2022-08-05T17:14:34.268Z,101247.81
2022-08-05T17:17:05.876Z,101240.53
2022-08-05T17:19:34.543Z,101252.94
2022-08-05T17:22:04.435Z,101257.22
2022-08-05T17:24:38.995Z,101266.88
2022-08-05T17:27:11.968Z,101274.59
2022-08-05T17:29:45.734Z,101281.13
2022-08-05T17:32:17.233Z,101269.00
2022-08-05T17:34:48.109Z,101272.78
2022-08-05T17:37:41.592Z,101282.47
2022-08-05T17:40:12.496Z,101285.63
2022-08-05T17:42:46.500Z,101294.78
2022-08-05T17:45:22.260Z,101295.34
2022-08-05T17:47:54.374Z,101302.97
2022-08-05T17:50:28.545Z,101303.44
2022-08-05T17:53:05.289Z,101300.69
2022-08-05T17:55:39.727Z,101308.09
2022-08-05T17:58:11.291Z,101322.06
2022-08-05T18:00:45.065Z,101323.75
2022-08-05T18:03:55.936Z,101324.09
2022-08-05T18:06:12.180Z,101332.50
2022-08-05T18:08:52.715Z,101334.38
2022-08-05T18:11:32.511Z,101330.03
2022-08-05T18:14:06.515Z,101338.66
2022-08-05T18:16:46.852Z,101337.50
2022-08-05T18:19:22.675Z,101338.41
2022-08-05T18:22:07.733Z,101351.19
2022-08-05T18:24:40.284Z,101355.97
2022-08-05T18:27:19.205Z,101357.50
2022-08-05T18:29:54.180Z,101367.34
2022-08-05T18:32:28.342Z,101370.34
2022-08-05T18:35:12.579Z,101369.44
2022-08-05T18:37:41.782Z,101379.28
2022-08-05T18:40:57.598Z,101381.91
2022-08-05T18:43:03.092Z,101385.53
2022-08-05T18:45:41.318Z,101389.22
2022-08-05T18:48:17.429Z,101379.34
2022-08-05T18:52:05.512Z,101388.22
2022-08-05T18:54:08.764Z,101389.03
2022-08-05T18:56:40.460Z,101395.06
2022-08-05T18:59:42.019Z,101395.03
2022-08-05T19:01:58.298Z,101396.16
2022-08-05T19:04:27.702Z,101400.22
2022-08-05T19:06:56.326Z,101397.22
2022-08-05T19:09:25.042Z,101403.97
2022-08-05T19:12:00.497Z,101400.41
2022-08-05T19:15:00.558Z,101421.44
2022-08-05T19:17:59.584Z,101416.84
2022-08-05T19:20:17.456Z,101415.47
2022-08-05T19:22:46.619Z,101416.78
2022-08-05T19:25:29.681Z,101402.22
2022-08-05T19:28:00.568Z,101419.16
2022-08-05T19:30:30.533Z,101418.09
2022-08-05T19:32:59.113Z,101425.41
2022-08-05T19:35:28.065Z,101431.53
2022-08-05T19:38:16.248Z,101428.69
2022-08-05T19:40:53.010Z,101432.66
2022-08-05T19:44:04.851Z,101441.56
2022-08-05T19:46:16.722Z,101437.41
2022-08-05T19:49:02.892Z,101438.03
2022-08-05T19:52:13.241Z,101442.13
2022-08-05T19:54:26.744Z,101441.31
2022-08-05T19:57:10.108Z,101447.00
2022-08-05T19:59:55.754Z,101449.94
2022-08-05T20:02:32.747Z,101462.31
2022-08-05T20:05:04.661Z,101467.72
2022-08-05T20:07:46.829Z,101463.38
2022-08-05T20:10:22.354Z,101463.94
2022-08-05T20:12:53.234Z,101465.00
2022-08-05T20:15:51.723Z,101477.97
2022-08-05T20:18:33.978Z,101478.28
2022-08-05T20:21:00.977Z,101479.41
2022-08-05T20:23:39.472Z,101479.78
2022-08-05T20:26:20.349Z,101479.28
2022-08-05T20:28:50.973Z,101480.91
2022-08-05T20:31:37.632Z,101484.75
2022-08-05T20:34:12.491Z,101491.16
2022-08-05T20:36:43.490Z,101485.78
2022-08-05T20:39:13.136Z,101482.53
2022-08-05T20:41:43.246Z,101490.06
2022-08-05T20:44:18.397Z,101478.72
2022-08-05T20:46:59.926Z,101489.72
2022-08-05T20:49:28.335Z,101475.84
2022-08-05T20:51:58.115Z,101483.34
2022-08-05T20:54:55.591Z,101486.19
2022-08-05T20:57:41.745Z,101486.47
2022-08-05T21:00:19.813Z,101487.78
2022-08-05T21:02:56.905Z,101495.25
2022-08-05T21:05:25.834Z,101498.22
2022-08-05T21:08:07.483Z,101504.88
2022-08-05T21:10:36.885Z,101499.19
2022-08-05T21:13:11.085Z,101495.09
2022-08-05T21:15:46.176Z,101496.44
2022-08-05T21:18:21.322Z,101492.94
2022-08-05T21:20:53.668Z,101498.22
2022-08-05T21:23:24.247Z,101504.06
2022-08-05T21:25:55.440Z,101512.63
2022-08-05T21:28:24.333Z,101519.31
2022-08-05T21:30:59.253Z,101521.50
2022-08-05T21:33:39.831Z,101521.19
2022-08-05T21:36:08.671Z,101522.72
2022-08-05T21:38:40.567Z,101534.19
2022-08-05T21:41:09.634Z,101526.06
2022-08-05T21:43:41.719Z,101520.59
2022-08-05T21:46:11.848Z,101523.19
2022-08-05T21:48:42.265Z,101522.84
2022-08-05T21:51:25.284Z,101531.03
2022-08-05T21:54:03.621Z,101533.63
2022-08-05T21:56:32.533Z,101533.53
2022-08-05T21:59:07.797Z,101537.19
2022-08-05T22:01:36.752Z,101542.47
2022-08-05T22:04:06.800Z,101548.28
2022-08-05T22:06:42.689Z,101550.06
2022-08-05T22:09:21.180Z,101550.78
2022-08-05T22:11:51.230Z,101553.34
2022-08-05T22:14:35.515Z,101553.81
2022-08-05T22:17:07.587Z,101553.72
2022-08-05T22:20:00.540Z,101553.16
2022-08-05T22:22:29.530Z,101559.47
2022-08-05T22:25:21.292Z,101559.94
2022-08-05T22:28:08.707Z,101563.31
2022-08-05T22:30:56.154Z,101570.22
2022-08-05T22:33:57.387Z,101563.47
2022-08-05T22:36:18.881Z,101576.28
2022-08-05T22:38:48.915Z,101566.47
2022-08-05T22:42:05.411Z,101563.66
2022-08-05T22:44:08.862Z,101569.50
2022-08-05T22:46:39.772Z,101568.34
2022-08-05T22:49:23.089Z,101579.53
2022-08-05T22:52:04.521Z,101574.66
2022-08-05T22:54:36.047Z,101582.56
2022-08-05T22:57:04.838Z,101576.25
2022-08-05T22:59:43.896Z,101578.59
2022-08-05T23:02:17.805Z,101583.84
2022-08-05T23:04:51.386Z,101584.53
2022-08-05T23:07:23.372Z,101580.44
2022-08-05T23:09:57.015Z,101583.00
2022-08-05T23:12:29.146Z,101588.22
2022-08-05T23:15:03.431Z,101596.75
2022-08-05T23:17:37.183Z,101590.22
2022-08-05T23:20:17.055Z,101586.13
2022-08-05T23:22:48.648Z,101592.75
2022-08-05T23:25:52.100Z,101594.50
2022-08-05T23:28:08.288Z,101601.94
2022-08-05T23:30:40.381Z,101598.69
2022-08-05T23:33:22.526Z,101604.63
2022-08-05T23:35:56.320Z,101605.28
2022-08-05T23:38:27.051Z,101600.41
2022-08-05T23:40:56.142Z,101601.09
2022-08-05T23:44:02.768Z,101607.09
2022-08-05T23:46:20.749Z,101611.28
2022-08-05T23:49:00.014Z,101617.91
2022-08-05T23:51:53.189Z,101624.53
2022-08-05T23:54:29.893Z,101621.28
2022-08-05T23:57:04.083Z,101615.97
